Time;durP1;ratioP1;P1;durP2;ratioP2;P2;SDS_P1;SDS_P2;PMS_P1;PMS_P2;Temp;Humidity;BMP_temperature;BMP_pressure;BME280_temperature;BME280_humidity;BME280_pressure;Samples;Min_cycle;Max_cycle;Signal;HPM_P1;HPM_P2
2021/06/07 00:00:49;;;;;;;1.67;1.40;;;;;;;;;;4878808;29;20021;-40
2021/06/07 00:03:14;;;;;;;1.88;1.40;;;;;;;;;;4878669;29;20045;-40
2021/06/07 00:05:40;;;;;;;2.03;1.50;;;;;;;;;;4878684;29;20060;-40
2021/06/07 00:08:05;;;;;;;5.13;1.40;;;;;;;;;;4878751;29;20391;-40
2021/06/07 00:10:31;;;;;;;3.40;2.40;;;;;;;;;;4878605;29;20085;-39
2021/06/07 00:12:56;;;;;;;1.70;1.60;;;;;;;;;;4877388;29;20401;-39
2021/06/07 00:15:23;;;;;;;4.13;1.67;;;;;;;;;;4878657;29;20034;-40
2021/06/07 00:17:48;;;;;;;1.92;1.40;;;;;;;;;;4878879;29;20056;-39
2021/06/07 00:20:16;;;;;;;2.03;1.80;;;;;;;;;;4877315;29;20460;-39
2021/06/07 00:22:42;;;;;;;2.50;1.73;;;;;;;;;;4878833;29;20052;-40
2021/06/07 00:25:08;;;;;;;6.45;1.42;;;;;;;;;;4878490;29;20460;-39
2021/06/07 00:27:34;;;;;;;1.88;1.50;;;;;;;;;;4878541;29;20037;-39
2021/06/07 00:29:59;;;;;;;1.90;1.70;;;;;;;;;;4878627;29;20036;-39
2021/06/07 00:32:24;;;;;;;2.22;1.67;;;;;;;;;;4878559;29;20025;-39
2021/06/07 00:34:50;;;;;;;4.90;2.13;;;;;;;;;;4878592;29;20104;-40
2021/06/07 00:37:15;;;;;;;3.38;1.20;;;;;;;;;;4878353;29;20049;-40
2021/06/07 00:39:41;;;;;;;1.60;1.50;;;;;;;;;;4878532;29;20492;-39
2021/06/07 00:42:06;;;;;;;2.15;1.33;;;;;;;;;;4878359;29;20108;-40
2021/06/07 00:44:32;;;;;;;2.63;1.88;;;;;;;;;;4878440;29;20120;-40
2021/06/07 00:46:57;;;;;;;1.83;1.48;;;;;;;;;;4878486;29;20033;-39
2021/06/07 00:49:23;;;;;;;2.03;1.58;;;;;;;;;;4880565;29;20032;-39
2021/06/07 00:51:49;;;;;;;2.60;1.70;;;;;;;;;;4881965;29;20037;-40
2021/06/07 00:54:15;;;;;;;2.05;1.70;;;;;;;;;;4880508;29;20017;-39
2021/06/07 00:56:40;;;;;;;3.03;1.90;;;;;;;;;;4881867;29;20599;-40
2021/06/07 00:59:06;;;;;;;1.45;1.35;;;;;;;;;;4881753;29;20025;-39
2021/06/07 01:01:31;;;;;;;2.17;1.60;;;;;;;;;;4881685;29;20029;-39
2021/06/07 01:03:58;;;;;;;1.50;1.40;;;;;;;;;;4882755;29;20392;-44
2021/06/07 01:06:24;;;;;;;2.50;2.08;;;;;;;;;;4883289;29;20031;-46
2021/06/07 01:08:49;;;;;;;2.20;1.50;;;;;;;;;;4882793;29;20139;-40
2021/06/07 01:11:15;;;;;;;3.20;2.10;;;;;;;;;;4880727;29;20535;-40
2021/06/07 01:13:41;;;;;;;2.35;1.60;;;;;;;;;;4882251;29;20103;-41
2021/06/07 01:16:07;;;;;;;1.42;1.20;;;;;;;;;;4881304;29;20400;-40
2021/06/07 01:18:32;;;;;;;1.85;1.33;;;;;;;;;;4881460;29;20025;-39
2021/06/07 01:21:03;;;;;;;3.97;1.75;;;;;;;;;;4881302;29;20025;-39
2021/06/07 01:23:28;;;;;;;2.15;1.40;;;;;;;;;;4881247;29;20080;-40
2021/06/07 01:25:55;;;;;;;8.48;1.67;;;;;;;;;;4881550;29;20036;-39
2021/06/07 01:28:20;;;;;;;5.85;1.58;;;;;;;;;;4881487;29;20440;-40
2021/06/07 01:30:47;;;;;;;2.03;1.60;;;;;;;;;;4879881;29;20036;-39
2021/06/07 01:33:13;;;;;;;2.05;1.85;;;;;;;;;;4881086;29;20025;-40
2021/06/07 01:35:39;;;;;;;2.08;1.40;;;;;;;;;;4881100;29;20032;-39
2021/06/07 01:38:05;;;;;;;16.27;1.58;;;;;;;;;;4880776;29;20053;-40
2021/06/07 01:40:32;;;;;;;1.95;1.63;;;;;;;;;;4881103;29;20040;-40
2021/06/07 01:42:57;;;;;;;2.38;1.65;;;;;;;;;;4881245;29;20077;-40
2021/06/07 01:45:23;;;;;;;2.22;1.50;;;;;;;;;;4880830;29;20503;-40
2021/06/07 01:47:49;;;;;;;1.42;1.33;;;;;;;;;;4880895;29;20116;-41
2021/06/07 01:50:15;;;;;;;1.52;1.40;;;;;;;;;;4880667;29;20157;-40
2021/06/07 01:52:44;;;;;;;5.30;1.67;;;;;;;;;;4880977;29;20037;-40
2021/06/07 01:55:16;;;;;;;2.03;1.42;;;;;;;;;;4880746;29;20108;-40
2021/06/07 01:57:42;;;;;;;2.22;1.70;;;;;;;;;;4880646;29;20025;-40
2021/06/07 02:00:09;;;;;;;5.30;1.50;;;;;;;;;;4880346;29;20029;-40
2021/06/07 02:02:35;;;;;;;2.55;1.67;;;;;;;;;;4880569;29;20515;-40
2021/06/07 02:05:00;;;;;;;2.17;1.98;;;;;;;;;;4879669;29;20053;-39
2021/06/07 02:07:26;;;;;;;1.45;1.13;;;;;;;;;;4880544;29;20044;-39
2021/06/07 02:09:51;;;;;;;1.38;1.17;;;;;;;;;;4880489;29;20068;-40
2021/06/07 02:12:16;;;;;;;1.95;1.52;;;;;;;;;;4879210;29;20041;-39
2021/06/07 02:14:42;;;;;;;1.98;1.55;;;;;;;;;;4880309;29;20028;-40
2021/06/07 02:17:07;;;;;;;1.50;1.35;;;;;;;;;;4880379;29;20053;-40
2021/06/07 02:19:32;;;;;;;3.78;1.63;;;;;;;;;;4880603;29;20025;-40
2021/06/07 02:21:58;;;;;;;2.28;1.65;;;;;;;;;;4880279;29;20025;-40
2021/06/07 02:24:23;;;;;;;5.07;1.73;;;;;;;;;;4880228;29;20033;-39
2021/06/07 02:26:48;;;;;;;3.17;1.80;;;;;;;;;;4880228;29;20033;-40
2021/06/07 02:29:14;;;;;;;2.45;1.48;;;;;;;;;;4880045;29;20093;-40
2021/06/07 02:31:40;;;;;;;4.07;1.40;;;;;;;;;;4880411;29;20033;-40
2021/06/07 02:34:08;;;;;;;1.30;1.17;;;;;;;;;;4880168;29;20093;-39
2021/06/07 02:36:34;;;;;;;1.83;1.50;;;;;;;;;;4879908;29;20472;-40
2021/06/07 02:39:00;;;;;;;4.25;1.67;;;;;;;;;;4880220;29;20033;-39
2021/06/07 02:41:26;;;;;;;3.47;1.40;;;;;;;;;;4879994;29;20436;-39
2021/06/07 02:43:51;;;;;;;3.10;1.55;;;;;;;;;;4878666;29;20119;-40
2021/06/07 02:46:19;;;;;;;2.15;1.38;;;;;;;;;;4880059;29;20081;-40
2021/06/07 02:48:44;;;;;;;1.48;1.05;;;;;;;;;;4879715;29;20029;-40
2021/06/07 02:51:10;;;;;;;2.28;1.60;;;;;;;;;;4878794;29;20037;-40
2021/06/07 02:53:35;;;;;;;1.80;1.60;;;;;;;;;;4879717;29;20052;-40
2021/06/07 02:56:01;;;;;;;4.70;1.88;;;;;;;;;;4879622;29;20427;-40
2021/06/07 02:58:26;;;;;;;1.80;1.55;;;;;;;;;;4879645;29;20025;-40
2021/06/07 03:00:54;;;;;;;1.88;1.17;;;;;;;;;;4878424;29;20060;-40
2021/06/07 03:03:20;;;;;;;2.85;1.98;;;;;;;;;;4878153;29;20536;-40
2021/06/07 03:05:47;;;;;;;1.65;1.55;;;;;;;;;;4879583;29;20033;-40
2021/06/07 03:08:14;;;;;;;2.08;1.58;;;;;;;;;;4879713;29;20117;-40
2021/06/07 03:10:40;;;;;;;4.20;1.38;;;;;;;;;;4878510;29;20045;-40
2021/06/07 03:13:05;;;;;;;2.83;1.48;;;;;;;;;;4879603;29;20116;-40
2021/06/07 03:15:31;;;;;;;1.60;1.50;;;;;;;;;;4879417;29;20117;-39
2021/06/07 03:17:56;;;;;;;6.15;1.67;;;;;;;;;;4879195;29;20017;-39
2021/06/07 03:20:25;;;;;;;1.58;1.25;;;;;;;;;;4879256;29;20033;-40
2021/06/07 03:22:51;;;;;;;3.42;1.38;;;;;;;;;;4879118;29;20029;-39
2021/06/07 03:25:16;;;;;;;2.35;1.40;;;;;;;;;;4879378;29;20040;-39
2021/06/07 03:27:42;;;;;;;1.52;1.42;;;;;;;;;;4879480;29;20021;-40
2021/06/07 03:30:09;;;;;;;1.88;1.70;;;;;;;;;;4879029;29;20072;-40
2021/06/07 03:32:35;;;;;;;2.15;1.45;;;;;;;;;;4877818;29;20017;-40
2021/06/07 03:35:01;;;;;;;2.33;1.33;;;;;;;;;;4878972;29;20039;-40
2021/06/07 03:37:26;;;;;;;2.85;1.80;;;;;;;;;;4878934;29;20057;-39
2021/06/07 03:39:52;;;;;;;2.35;1.42;;;;;;;;;;4879024;29;20036;-40
2021/06/07 03:42:17;;;;;;;1.92;1.63;;;;;;;;;;4878928;29;20456;-40
2021/06/07 03:44:43;;;;;;;1.90;1.52;;;;;;;;;;4862264;29;20037;-39
2021/06/07 03:47:08;;;;;;;1.98;1.30;;;;;;;;;;4878761;29;20138;-40
2021/06/07 03:49:33;;;;;;;2.67;1.52;;;;;;;;;;4877609;29;20113;-40
2021/06/07 03:51:59;;;;;;;1.50;1.15;;;;;;;;;;4878942;29;20029;-40
2021/06/07 03:54:24;;;;;;;1.52;1.20;;;;;;;;;;4878957;29;20361;-40
2021/06/07 03:56:49;;;;;;;2.80;1.67;;;;;;;;;;4877600;29;20021;-41
2021/06/07 03:59:15;;;;;;;3.03;1.45;;;;;;;;;;4878710;29;20025;-40
2021/06/07 04:01:41;;;;;;;1.75;1.40;;;;;;;;;;4878729;29;20028;-40
2021/06/07 04:04:06;;;;;;;4.63;1.35;;;;;;;;;;4878640;29;20039;-40
2021/06/07 04:06:32;;;;;;;1.45;1.10;;;;;;;;;;4878703;29;20100;-40
2021/06/07 04:08:59;;;;;;;1.80;1.52;;;;;;;;;;4878922;29;20069;-40
2021/06/07 04:11:24;;;;;;;1.33;1.23;;;;;;;;;;4878850;29;20076;-40
2021/06/07 04:13:50;;;;;;;1.45;1.27;;;;;;;;;;4878579;29;20041;-40
2021/06/07 04:16:16;;;;;;;2.08;1.52;;;;;;;;;;4878884;29;20116;-40
2021/06/07 04:18:41;;;;;;;2.05;1.55;;;;;;;;;;4878600;29;20057;-41
2021/06/07 04:21:06;;;;;;;1.20;1.10;;;;;;;;;;4878876;29;20068;-40
2021/06/07 04:23:32;;;;;;;1.80;1.58;;;;;;;;;;4882386;29;20057;-40
2021/06/07 04:25:57;;;;;;;2.00;1.35;;;;;;;;;;4881155;29;20032;-41
2021/06/07 04:28:22;;;;;;;2.47;1.55;;;;;;;;;;4882245;29;20029;-40
2021/06/07 04:30:48;;;;;;;2.10;1.10;;;;;;;;;;4882248;29;20029;-40
2021/06/07 04:33:13;;;;;;;5.53;1.80;;;;;;;;;;4882146;29;20373;-40
2021/06/07 04:35:38;;;;;;;2.97;1.58;;;;;;;;;;4882148;29;20028;-40
2021/06/07 04:38:04;;;;;;;2.88;1.50;;;;;;;;;;4881898;29;20048;-40
2021/06/07 04:40:31;;;;;;;2.92;1.45;;;;;;;;;;4882122;29;20033;-40
2021/06/07 04:42:57;;;;;;;1.35;1.13;;;;;;;;;;4882045;29;20040;-40
2021/06/07 04:45:23;;;;;;;2.28;1.35;;;;;;;;;;4882175;29;20076;-40
2021/06/07 04:47:49;;;;;;;1.83;1.30;;;;;;;;;;4882002;29;20128;-40
2021/06/07 04:50:16;;;;;;;1.83;1.40;;;;;;;;;;4881741;29;20040;-39
2021/06/07 04:52:57;;;;;;;1.95;1.45;;;;;;;;;;4881917;29;20044;-40
2021/06/07 04:55:42;;;;;;;2.90;1.20;;;;;;;;;;4882115;29;20487;-41
2021/06/07 04:58:09;;;;;;;1.88;1.45;;;;;;;;;;4881713;29;20116;-39
2021/06/07 05:00:35;;;;;;;1.55;1.30;;;;;;;;;;4881797;29;20072;-40
2021/06/07 05:03:01;;;;;;;3.90;1.55;;;;;;;;;;4881596;29;20523;-39
2021/06/07 05:05:27;;;;;;;2.15;1.42;;;;;;;;;;4881654;29;20029;-39
2021/06/07 05:07:52;;;;;;;4.15;1.35;;;;;;;;;;4880547;29;20033;-40
2021/06/07 05:10:18;;;;;;;1.70;1.10;;;;;;;;;;4881418;29;20065;-40
2021/06/07 05:12:44;;;;;;;1.45;1.25;;;;;;;;;;4881397;29;20150;-40
2021/06/07 05:15:10;;;;;;;1.35;1.25;;;;;;;;;;4881723;29;20025;-40
2021/06/07 05:17:35;;;;;;;1.50;1.40;;;;;;;;;;4881418;29;20122;-39
2021/06/07 05:20:01;;;;;;;3.33;1.38;;;;;;;;;;4880523;29;20105;-40
2021/06/07 05:22:26;;;;;;;1.45;1.20;;;;;;;;;;4881332;29;20037;-40
2021/06/07 05:24:52;;;;;;;1.75;1.38;;;;;;;;;;4880043;29;20029;-39
2021/06/07 05:27:18;;;;;;;1.83;1.30;;;;;;;;;;4881271;29;20089;-40
2021/06/07 05:29:44;;;;;;;1.73;1.30;;;;;;;;;;4880018;29;20085;-40
2021/06/07 05:32:10;;;;;;;1.95;1.30;;;;;;;;;;4881087;29;20040;-40
2021/06/07 05:34:35;;;;;;;6.80;1.40;;;;;;;;;;4880360;29;20029;-39
2021/06/07 05:37:01;;;;;;;2.20;1.33;;;;;;;;;;4880845;29;20056;-39
2021/06/07 05:39:26;;;;;;;1.77;1.30;;;;;;;;;;4881359;29;20141;-40
2021/06/07 05:41:51;;;;;;;2.85;1.15;;;;;;;;;;4881375;29;20033;-40
2021/06/07 05:44:17;;;;;;;1.45;1.10;;;;;;;;;;4880865;29;20028;-40
2021/06/07 05:46:42;;;;;;;2.95;1.40;;;;;;;;;;4881137;29;20040;-39
2021/06/07 05:49:08;;;;;;;5.20;1.33;;;;;;;;;;4879561;29;20476;-39
2021/06/07 05:51:33;;;;;;;2.15;1.08;;;;;;;;;;4880954;29;20032;-39
2021/06/07 05:53:59;;;;;;;1.60;1.42;;;;;;;;;;4880771;29;20021;-39
2021/06/07 05:56:24;;;;;;;0.93;0.85;;;;;;;;;;4880778;29;20033;-39
2021/06/07 05:58:56;;;;;;;1.40;1.30;;;;;;;;;;4880992;29;20479;-39
2021/06/07 06:01:21;;;;;;;8.20;1.23;;;;;;;;;;4880595;29;20033;-39
2021/06/07 06:03:47;;;;;;;1.67;1.33;;;;;;;;;;4880640;29;20025;-39
2021/06/07 06:06:13;;;;;;;1.67;1.10;;;;;;;;;;4880546;29;20056;-40
2021/06/07 06:08:38;;;;;;;1.52;1.30;;;;;;;;;;4880460;29;20036;-39
2021/06/07 06:11:03;;;;;;;1.67;1.58;;;;;;;;;;4880488;29;20037;-39
2021/06/07 06:13:29;;;;;;;6.10;1.30;;;;;;;;;;4880715;29;20460;-40
2021/06/07 06:15:54;;;;;;;2.47;1.20;;;;;;;;;;4880413;29;20036;-40
2021/06/07 06:18:20;;;;;;;1.30;1.17;;;;;;;;;;4880331;29;20487;-40
2021/06/07 06:20:45;;;;;;;2.92;1.30;;;;;;;;;;4880407;29;20040;-39
2021/06/07 06:23:10;;;;;;;3.80;1.27;;;;;;;;;;4878932;29;20060;-39
2021/06/07 06:25:36;;;;;;;2.17;1.65;;;;;;;;;;4880342;29;20104;-40
2021/06/07 06:28:01;;;;;;;1.70;1.20;;;;;;;;;;4879008;29;20205;-40
2021/06/07 06:30:27;;;;;;;3.78;1.30;;;;;;;;;;4880012;29;20037;-39
2021/06/07 06:32:54;;;;;;;2.50;1.27;;;;;;;;;;4880132;29;20028;-39
2021/06/07 06:35:20;;;;;;;2.03;1.05;;;;;;;;;;4880010;29;20025;-39
2021/06/07 06:37:47;;;;;;;2.88;1.50;;;;;;;;;;4879929;29;20133;-39
2021/06/07 06:40:16;;;;;;;2.08;1.88;;;;;;;;;;4879928;29;20485;-39
2021/06/07 06:42:42;;;;;;;3.42;1.55;;;;;;;;;;4880177;29;20037;-39
2021/06/07 06:45:07;;;;;;;4.97;2.10;;;;;;;;;;4879720;29;20036;-40
2021/06/07 06:47:34;;;;;;;2.83;1.77;;;;;;;;;;4880075;29;20029;-39
2021/06/07 06:50:00;;;;;;;8.63;2.17;;;;;;;;;;4879750;29;20044;-41
2021/06/07 06:52:25;;;;;;;3.22;1.80;;;;;;;;;;4878473;29;20021;-39
2021/06/07 06:54:51;;;;;;;2.42;1.92;;;;;;;;;;4879750;29;20037;-39
2021/06/07 06:57:16;;;;;;;1.63;1.52;;;;;;;;;;4879891;29;20021;-39
2021/06/07 06:59:41;;;;;;;4.43;1.90;;;;;;;;;;4879849;29;20070;-40
2021/06/07 07:02:07;;;;;;;3.65;2.30;;;;;;;;;;4879560;29;20025;-39
2021/06/07 07:04:32;;;;;;;4.55;1.80;;;;;;;;;;4879774;29;20033;-40
2021/06/07 07:06:57;;;;;;;2.58;1.80;;;;;;;;;;4879554;29;20089;-39
2021/06/07 07:09:23;;;;;;;3.25;1.92;;;;;;;;;;4879377;29;20029;-39
2021/06/07 07:11:50;;;;;;;2.10;1.77;;;;;;;;;;4879622;29;20032;-39
2021/06/07 07:14:15;;;;;;;4.35;2.50;;;;;;;;;;4879263;29;20547;-40
2021/06/07 07:16:41;;;;;;;4.55;2.33;;;;;;;;;;4878170;29;20100;-40
2021/06/07 07:19:06;;;;;;;2.72;2.03;;;;;;;;;;4879287;29;20056;-40
2021/06/07 07:21:31;;;;;;;2.58;2.38;;;;;;;;;;4879364;29;20365;-39
2021/06/07 07:23:57;;;;;;;2.47;2.00;;;;;;;;;;4879241;29;20408;-39
2021/06/07 07:26:23;;;;;;;2.55;2.08;;;;;;;;;;4877879;29;20510;-39
2021/06/07 07:28:48;;;;;;;2.40;2.20;;;;;;;;;;4862593;29;20029;-39
2021/06/07 07:31:13;;;;;;;4.07;2.17;;;;;;;;;;4877932;29;20029;-40
2021/06/07 07:33:39;;;;;;;6.65;2.22;;;;;;;;;;4877846;29;20025;-39
2021/06/07 07:36:06;;;;;;;3.13;2.63;;;;;;;;;;4879037;29;20029;-39
2021/06/07 07:38:32;;;;;;;3.40;2.13;;;;;;;;;;4879048;29;20049;-40
2021/06/07 07:40:57;;;;;;;3.28;2.40;;;;;;;;;;4878978;29;20037;-40
2021/06/07 07:43:22;;;;;;;2.97;2.22;;;;;;;;;;4878916;29;20120;-39
2021/06/07 07:45:48;;;;;;;3.58;2.65;;;;;;;;;;4877736;29;20029;-40
2021/06/07 07:48:13;;;;;;;2.45;2.25;;;;;;;;;;4878785;29;20177;-39
2021/06/07 07:50:39;;;;;;;3.63;2.58;;;;;;;;;;4878913;29;20025;-39
2021/06/07 07:53:04;;;;;;;4.30;2.60;;;;;;;;;;4878848;29;20036;-40
2021/06/07 07:55:31;;;;;;;3.90;3.17;;;;;;;;;;4877506;29;20036;-39
2021/06/07 07:57:57;;;;;;;3.92;2.38;;;;;;;;;;4879161;29;20369;-39
2021/06/07 08:00:24;;;;;;;2.88;2.17;;;;;;;;;;4879752;29;20388;-39
2021/06/07 08:02:49;;;;;;;3.22;2.50;;;;;;;;;;4879733;29;20025;-39
2021/06/07 08:05:15;;;;;;;2.90;2.63;;;;;;;;;;4878067;29;20031;-40
2021/06/07 08:07:40;;;;;;;4.32;3.08;;;;;;;;;;4879493;29;20029;-41
2021/06/07 08:10:07;;;;;;;4.43;3.25;;;;;;;;;;4877396;29;20093;-40
2021/06/07 08:12:32;;;;;;;3.45;2.63;;;;;;;;;;4878587;29;20077;-39
2021/06/07 08:14:58;;;;;;;8.55;3.67;;;;;;;;;;4878698;29;20059;-40
2021/06/07 08:17:23;;;;;;;3.88;3.22;;;;;;;;;;4878801;29;20104;-39
2021/06/07 08:19:49;;;;;;;4.78;3.60;;;;;;;;;;4878851;29;20056;-39
2021/06/07 08:22:14;;;;;;;4.35;3.22;;;;;;;;;;4878810;29;20056;-40
2021/06/07 08:24:40;;;;;;;4.10;3.70;;;;;;;;;;4878535;29;20021;-40
2021/06/07 08:27:06;;;;;;;3.33;2.80;;;;;;;;;;4878492;29;20033;-40
2021/06/07 08:29:32;;;;;;;5.15;3.05;;;;;;;;;;4878414;29;20075;-39
2021/06/07 08:31:58;;;;;;;4.00;3.05;;;;;;;;;;4878691;29;20067;-40
2021/06/07 08:34:23;;;;;;;5.00;2.92;;;;;;;;;;4878704;29;20064;-39
2021/06/07 08:36:49;;;;;;;4.72;2.97;;;;;;;;;;4878248;29;20143;-41
2021/06/07 08:39:15;;;;;;;4.05;2.80;;;;;;;;;;4878426;29;20161;-39
2021/06/07 08:41:40;;;;;;;3.42;3.00;;;;;;;;;;4878470;29;20053;-40
2021/06/07 08:44:06;;;;;;;5.82;3.03;;;;;;;;;;4878198;29;20490;-39
2021/06/07 08:46:31;;;;;;;4.40;3.40;;;;;;;;;;4878411;29;20036;-39
2021/06/07 08:48:57;;;;;;;3.63;2.65;;;;;;;;;;4877009;29;20036;-39
2021/06/07 08:51:22;;;;;;;2.83;2.47;;;;;;;;;;4877000;29;20033;-39
2021/06/07 08:53:48;;;;;;;5.13;3.28;;;;;;;;;;4878318;29;20468;-39
2021/06/07 08:56:17;;;;;;;4.35;3.30;;;;;;;;;;4877040;29;20045;-39
2021/06/07 08:58:43;;;;;;;4.13;3.35;;;;;;;;;;4878236;29;20025;-40
2021/06/07 09:01:09;;;;;;;6.32;3.58;;;;;;;;;;4878242;29;20089;-39
2021/06/07 09:03:34;;;;;;;4.03;2.38;;;;;;;;;;4878165;29;20021;-39
2021/06/07 09:06:00;;;;;;;5.75;2.92;;;;;;;;;;4877010;29;20124;-39
2021/06/07 09:08:34;;;;;;;4.28;3.25;;;;;;;;;;4878940;29;20044;-40
2021/06/07 09:11:10;;;;;;;3.45;3.10;;;;;;;;;;4881746;29;20045;-39
2021/06/07 09:13:36;;;;;;;4.40;2.97;;;;;;;;;;4880233;29;20033;-39
2021/06/07 09:16:02;;;;;;;4.70;3.15;;;;;;;;;;4881579;29;20029;-40
2021/06/07 09:18:27;;;;;;;3.88;2.35;;;;;;;;;;4881703;29;20037;-40
2021/06/07 09:20:58;;;;;;;4.45;3.00;;;;;;;;;;4881405;29;20100;-39
2021/06/07 09:23:23;;;;;;;5.15;3.55;;;;;;;;;;4881218;29;20089;-39
2021/06/07 09:25:49;;;;;;;5.00;3.42;;;;;;;;;;4880091;29;20032;-40
2021/06/07 09:28:19;;;;;;;3.33;2.72;;;;;;;;;;4881281;29;20089;-39
2021/06/07 09:30:51;;;;;;;7.05;3.45;;;;;;;;;;4881338;29;20132;-39
2021/06/07 09:33:21;;;;;;;5.70;3.35;;;;;;;;;;4881093;29;20455;-39
2021/06/07 09:36:04;;;;;;;3.30;3.00;;;;;;;;;;4881381;29;20029;-39
2021/06/07 09:38:29;;;;;;;5.47;3.13;;;;;;;;;;4881098;29;20381;-39
2021/06/07 09:41:02;;;;;;;4.10;3.47;;;;;;;;;;4879883;29;20032;-40
2021/06/07 09:43:45;;;;;;;5.32;3.00;;;;;;;;;;4880972;29;20399;-39
2021/06/07 09:46:10;;;;;;;3.42;3.13;;;;;;;;;;4880970;29;20041;-39
2021/06/07 09:48:36;;;;;;;3.85;3.13;;;;;;;;;;4881175;29;20032;-39
2021/06/07 09:51:02;;;;;;;7.55;3.55;;;;;;;;;;4880895;29;20591;-39
2021/06/07 09:53:47;;;;;;;4.70;3.20;;;;;;;;;;4881013;29;20031;-40
2021/06/07 09:56:13;;;;;;;8.32;3.33;;;;;;;;;;4880667;29;20045;-39
2021/06/07 09:58:40;;;;;;;4.32;3.10;;;;;;;;;;4880833;29;20523;-39
2021/06/07 10:01:09;;;;;;;3.70;3.28;;;;;;;;;;4880628;29;20025;-39
2021/06/07 10:03:48;;;;;;;3.97;3.47;;;;;;;;;;4880883;29;20077;-39
2021/06/07 10:06:34;;;;;;;4.70;3.13;;;;;;;;;;4879384;29;20044;-39
2021/06/07 10:09:04;;;;;;;3.50;3.13;;;;;;;;;;4880865;29;20515;-39
2021/06/07 10:11:35;;;;;;;8.38;3.70;;;;;;;;;;4880456;29;20036;-39
2021/06/07 10:14:04;;;;;;;3.97;3.17;;;;;;;;;;4880787;29;20037;-39
2021/06/07 10:16:29;;;;;;;4.90;3.30;;;;;;;;;;4880426;29;20052;-39
2021/06/07 10:18:56;;;;;;;3.80;3.30;;;;;;;;;;4880071;29;20494;-40
2021/06/07 10:21:21;;;;;;;4.75;3.42;;;;;;;;;;4880392;29;20077;-40
2021/06/07 10:23:47;;;;;;;3.88;3.22;;;;;;;;;;4880184;29;20392;-39
2021/06/07 10:26:12;;;;;;;3.53;3.13;;;;;;;;;;4879000;29;20036;-40
2021/06/07 10:28:39;;;;;;;3.78;3.28;;;;;;;;;;4880317;29;20033;-39
2021/06/07 10:31:09;;;;;;;7.85;3.85;;;;;;;;;;4878742;29;20138;-39
2021/06/07 10:33:36;;;;;;;4.32;3.50;;;;;;;;;;4880403;29;20487;-39
2021/06/07 10:36:19;;;;;;;3.55;3.10;;;;;;;;;;4880287;29;20096;-40
2021/06/07 10:38:45;;;;;;;8.38;3.72;;;;;;;;;;4878651;29;20052;-39
2021/06/07 10:41:29;;;;;;;4.05;3.65;;;;;;;;;;4880169;29;20037;-39
2021/06/07 10:43:55;;;;;;;4.32;3.70;;;;;;;;;;4879954;29;20053;-39
2021/06/07 10:46:28;;;;;;;3.60;3.25;;;;;;;;;;4880052;29;20433;-39
2021/06/07 10:48:55;;;;;;;3.15;2.85;;;;;;;;;;4879799;29;20040;-39
2021/06/07 10:51:21;;;;;;;3.60;3.28;;;;;;;;;;4878832;29;20068;-40
2021/06/07 10:53:49;;;;;;;4.15;3.13;;;;;;;;;;4878460;29;20076;-39
2021/06/07 10:56:14;;;;;;;4.70;3.67;;;;;;;;;;4879757;29;20028;-39
2021/06/07 10:59:09;;;;;;;4.35;3.28;;;;;;;;;;4879667;29;20036;-40
2021/06/07 11:01:47;;;;;;;7.63;4.88;;;;;;;;;;4882960;29;20109;-39
2021/06/07 11:04:12;;;;;;;4.95;3.15;;;;;;;;;;4879530;29;20508;-39
2021/06/07 11:06:48;;;;;;;4.35;3.30;;;;;;;;;;4879520;29;20108;-39
2021/06/07 11:09:13;;;;;;;3.50;3.17;;;;;;;;;;4879440;29;20065;-40
2021/06/07 11:11:49;;;;;;;3.70;3.40;;;;;;;;;;4879642;29;20075;-40
2021/06/07 11:14:15;;;;;;;3.42;2.80;;;;;;;;;;4879423;29;20033;-40
2021/06/07 11:16:46;;;;;;;4.40;3.47;;;;;;;;;;4879405;29;20077;-40
2021/06/07 11:19:15;;;;;;;4.10;3.35;;;;;;;;;;4879602;29;20040;-39
2021/06/07 11:21:46;;;;;;;4.03;2.83;;;;;;;;;;4877955;29;20053;-39
2021/06/07 11:24:30;;;;;;;5.90;4.22;;;;;;;;;;4879163;29;20047;-39
2021/06/07 11:26:56;;;;;;;4.35;3.55;;;;;;;;;;4879497;29;20431;-38
2021/06/07 11:29:21;;;;;;;6.47;3.55;;;;;;;;;;4877787;29;20065;-39
2021/06/07 11:31:51;;;;;;;4.70;3.30;;;;;;;;;;4878839;29;20416;-39
2021/06/07 11:34:20;;;;;;;3.85;3.10;;;;;;;;;;4879097;29;20130;-40
2021/06/07 11:36:48;;;;;;;8.82;3.42;;;;;;;;;;4878857;29;20044;-39
2021/06/07 11:39:14;;;;;;;3.45;2.67;;;;;;;;;;4877838;29;20041;-39
2021/06/07 11:41:59;;;;;;;3.67;3.38;;;;;;;;;;4879007;29;20029;-41
2021/06/07 11:44:44;;;;;;;4.60;3.53;;;;;;;;;;4878747;29;20053;-40
2021/06/07 11:47:14;;;;;;;3.95;3.47;;;;;;;;;;4878828;29;20105;-39
2021/06/07 11:49:55;;;;;;;4.55;3.58;;;;;;;;;;4878833;29;20120;-39
2021/06/07 11:52:47;;;;;;;5.82;3.53;;;;;;;;;;4878993;29;20049;-40
2021/06/07 11:55:26;;;;;;;4.28;3.45;;;;;;;;;;4878820;29;20036;-40
2021/06/07 11:57:52;;;;;;;3.35;3.05;;;;;;;;;;4879066;29;20059;-40
2021/06/07 12:00:19;;;;;;;4.15;3.45;;;;;;;;;;4879025;29;20464;-40
2021/06/07 12:02:44;;;;;;;4.07;3.55;;;;;;;;;;4878786;29;20033;-40
2021/06/07 12:05:13;;;;;;;3.75;3.13;;;;;;;;;;4878723;29;20114;-40
2021/06/07 12:07:42;;;;;;;4.15;3.78;;;;;;;;;;4878789;29;20040;-39
2021/06/07 12:10:11;;;;;;;11.80;3.70;;;;;;;;;;4878915;29;20041;-40
2021/06/07 12:12:36;;;;;;;4.93;3.72;;;;;;;;;;4878814;29;20040;-39
2021/06/07 12:15:16;;;;;;;7.32;3.28;;;;;;;;;;4878779;29;20025;-40
2021/06/07 12:17:49;;;;;;;4.68;3.25;;;;;;;;;;4878609;29;20193;-39
2021/06/07 12:20:14;;;;;;;;;;;;;;;;;;4879025;29;20133;-39
2021/06/07 12:22:41;;;;;;;5.80;3.78;;;;;;;;;;4878849;29;19991;-40
2021/06/07 12:30:28;;;;;;;4.43;3.65;;;;;;;;;;4878559;29;20052;-40
2021/06/07 12:32:54;;;;;;;3.80;3.50;;;;;;;;;;4877217;29;20104;-40
2021/06/07 12:35:20;;;;;;;4.40;3.45;;;;;;;;;;4878391;29;20048;-40
2021/06/07 12:37:52;;;;;;;4.30;3.72;;;;;;;;;;4878392;29;20404;-40
2021/06/07 12:40:30;;;;;;;4.63;3.30;;;;;;;;;;4878349;29;20072;-40
2021/06/07 12:42:57;;;;;;;5.25;4.72;;;;;;;;;;4880012;29;20037;-40
2021/06/07 12:45:27;;;;;;;5.93;3.55;;;;;;;;;;4881986;29;20032;-39
2021/06/07 12:47:53;;;;;;;6.35;3.85;;;;;;;;;;4880802;29;20484;-40
2021/06/07 12:50:22;;;;;;;9.25;3.72;;;;;;;;;;4882066;29;20079;-40
2021/06/07 12:52:48;;;;;;;7.55;4.63;;;;;;;;;;4881943;29;20117;-39
2021/06/07 12:55:16;;;;;;;4.75;3.95;;;;;;;;;;4882003;29;20115;-40
2021/06/07 12:57:42;;;;;;;5.68;3.65;;;;;;;;;;4881920;29;20033;-39
2021/06/07 13:00:22;;;;;;;6.15;4.03;;;;;;;;;;4881845;29;20432;-40
2021/06/07 13:02:48;;;;;;;4.55;3.97;;;;;;;;;;4882049;29;20093;-40
2021/06/07 13:05:43;;;;;;;7.47;4.22;;;;;;;;;;4881667;29;20029;-39
2021/06/07 13:08:16;;;;;;;5.35;4.00;;;;;;;;;;4885045;29;20092;-40
2021/06/07 13:10:42;;;;;;;;;;;;;;;;;;4882265;29;20457;-40
2021/06/07 13:13:08;;;;;;;4.95;4.28;;;;;;;;;;4882104;29;19908;-40
2021/06/07 13:15:33;;;;;;;9.77;4.60;;;;;;;;;;4880313;29;20029;-40
2021/06/07 13:18:04;;;;;;;4.13;3.72;;;;;;;;;;4881547;29;20025;-39
2021/06/07 13:20:29;;;;;;;3.95;3.42;;;;;;;;;;4881680;29;20033;-40
2021/06/07 13:22:55;;;;;;;4.72;3.65;;;;;;;;;;4881275;29;20361;-40
2021/06/07 13:25:20;;;;;;;3.67;3.38;;;;;;;;;;4881309;29;20117;-41
2021/06/07 13:27:46;;;;;;;4.07;3.67;;;;;;;;;;4881376;29;20025;-40
2021/06/07 13:30:11;;;;;;;4.72;4.00;;;;;;;;;;4881151;29;20552;-40
2021/06/07 13:32:37;;;;;;;4.05;3.65;;;;;;;;;;4881263;29;20021;-40
2021/06/07 13:35:03;;;;;;;5.35;4.45;;;;;;;;;;4881504;29;20037;-40
2021/06/07 13:37:37;;;;;;;3.22;2.95;;;;;;;;;;4880902;29;20154;-40
2021/06/07 13:40:02;;;;;;;10.35;3.85;;;;;;;;;;4881115;29;20400;-39
2021/06/07 13:42:40;;;;;;;6.75;3.85;;;;;;;;;;4881039;29;20033;-39
2021/06/07 13:45:06;;;;;;;7.63;4.30;;;;;;;;;;4879763;29;20052;-39
2021/06/07 13:47:35;;;;;;;4.78;3.58;;;;;;;;;;4880908;29;20115;-40
2021/06/07 13:50:00;;;;;;;4.18;3.80;;;;;;;;;;4881105;29;20115;-39
2021/06/07 13:52:46;;;;;;;4.65;3.78;;;;;;;;;;4881008;29;20401;-40
2021/06/07 13:55:35;;;;;;;5.82;3.75;;;;;;;;;;4880015;29;20173;-39
2021/06/07 13:58:04;;;;;;;4.50;3.88;;;;;;;;;;4882811;29;20433;-41
2021/06/07 14:00:32;;;;;;;6.68;3.30;;;;;;;;;;4880910;29;20036;-39
2021/06/07 14:02:57;;;;;;;4.32;3.67;;;;;;;;;;4879497;29;20033;-39
2021/06/07 14:05:24;;;;;;;4.43;3.92;;;;;;;;;;4880524;29;20036;-40
2021/06/07 14:07:49;;;;;;;5.30;4.22;;;;;;;;;;4880703;29;20025;-40
2021/06/07 14:10:15;;;;;;;5.22;4.72;;;;;;;;;;4880515;29;20492;-39
2021/06/07 14:12:41;;;;;;;9.80;3.67;;;;;;;;;;4880436;29;20432;-40
2021/06/07 14:15:07;;;;;;;4.47;3.72;;;;;;;;;;4880589;29;20103;-40
2021/06/07 14:17:33;;;;;;;3.67;3.22;;;;;;;;;;4880416;29;20029;-40
2021/06/07 14:19:58;;;;;;;3.17;2.88;;;;;;;;;;4880661;29;20479;-40
2021/06/07 14:24:49;;;;;;;3.78;3.22;;;;;;;;;;4880649;29;20025;-39
2021/06/07 14:27:15;;;;;;;4.43;2.88;;;;;;;;;;4880208;29;20033;-39
2021/06/07 14:29:42;;;;;;;4.97;2.88;;;;;;;;;;4878962;29;20120;-39
2021/06/07 14:32:07;;;;;;;3.28;2.65;;;;;;;;;;4879025;29;20041;-39
2021/06/07 14:34:33;;;;;;;3.47;2.92;;;;;;;;;;4880086;29;20089;-40
2021/06/07 14:36:59;;;;;;;2.97;2.35;;;;;;;;;;4879972;29;20104;-40
2021/06/07 14:39:24;;;;;;;2.97;2.67;;;;;;;;;;4880101;29;20116;-40
2021/06/07 14:41:51;;;;;;;3.15;2.88;;;;;;;;;;4879986;29;20418;-39
2021/06/07 14:44:16;;;;;;;2.72;2.33;;;;;;;;;;4880226;29;20438;-39
2021/06/07 14:46:42;;;;;;;2.60;2.40;;;;;;;;;;4880112;29;20029;-40
2021/06/07 14:49:07;;;;;;;3.42;2.80;;;;;;;;;;4878721;29;20041;-39
2021/06/07 14:51:33;;;;;;;3.35;2.90;;;;;;;;;;4879797;29;20108;-39